sensor_id;sensor_type;location;lat;lon;timestamp;P1;durP1;ratioP1;P2;durP2;ratioP2
11092;SDS011;5600;50.864;6.102;2023-12-20T00:01:25;59.10;;;14.53;;
11092;SDS011;5600;50.864;6.102;2023-12-20T00:04:26;47.40;;;14.00;;
11092;SDS011;5600;50.864;6.102;2023-12-20T00:07:27;36.37;;;12.93;;
11092;SDS011;5600;50.864;6.102;2023-12-20T00:10:28;41.00;;;13.57;;
11092;SDS011;5600;50.864;6.102;2023-12-20T00:13:28;59.93;;;15.23;;
11092;SDS011;5600;50.864;6.102;2023-12-20T00:16:30;52.47;;;14.03;;
11092;SDS011;5600;50.864;6.102;2023-12-20T00:19:32;49.53;;;14.77;;
11092;SDS011;5600;50.864;6.102;2023-12-20T00:22:33;50.13;;;14.43;;
11092;SDS011;5600;50.864;6.102;2023-12-20T00:25:34;57.73;;;14.37;;
11092;SDS011;5600;50.864;6.102;2023-12-20T00:28:35;54.93;;;13.70;;
11092;SDS011;5600;50.864;6.102;2023-12-20T00:31:36;63.67;;;14.20;;
11092;SDS011;5600;50.864;6.102;2023-12-20T00:34:37;50.77;;;13.40;;
11092;SDS011;5600;50.864;6.102;2023-12-20T00:37:37;58.03;;;13.57;;
11092;SDS011;5600;50.864;6.102;2023-12-20T00:40:38;62.07;;;13.53;;
11092;SDS011;5600;50.864;6.102;2023-12-20T00:43:39;92.67;;;14.40;;
11092;SDS011;5600;50.864;6.102;2023-12-20T00:46:40;54.77;;;12.87;;
11092;SDS011;5600;50.864;6.102;2023-12-20T00:49:41;82.23;;;14.97;;
11092;SDS011;5600;50.864;6.102;2023-12-20T00:52:42;53.17;;;10.23;;
11092;SDS011;5600;50.864;6.102;2023-12-20T00:55:43;51.47;;;8.53;;
11092;SDS011;5600;50.864;6.102;2023-12-20T00:58:45;41.33;;;4.90;;
11092;SDS011;5600;50.864;6.102;2023-12-20T01:01:45;58.67;;;5.20;;
11092;SDS011;5600;50.864;6.102;2023-12-20T01:04:46;40.73;;;4.50;;
11092;SDS011;5600;50.864;6.102;2023-12-20T01:07:47;48.53;;;5.20;;
11092;SDS011;5600;50.864;6.102;2023-12-20T01:10:48;56.57;;;4.80;;
11092;SDS011;5600;50.864;6.102;2023-12-20T01:13:48;50.93;;;4.50;;
11092;SDS011;5600;50.864;6.102;2023-12-20T01:16:50;29.80;;;3.17;;
11092;SDS011;5600;50.864;6.102;2023-12-20T01:19:50;67.03;;;4.57;;
11092;SDS011;5600;50.864;6.102;2023-12-20T01:22:52;50.57;;;3.93;;
11092;SDS011;5600;50.864;6.102;2023-12-20T01:25:52;44.73;;;3.77;;
11092;SDS011;5600;50.864;6.102;2023-12-20T01:28:54;37.77;;;3.43;;
11092;SDS011;5600;50.864;6.102;2023-12-20T01:31:55;48.07;;;3.87;;
11092;SDS011;5600;50.864;6.102;2023-12-20T01:34:56;36.30;;;3.20;;
11092;SDS011;5600;50.864;6.102;2023-12-20T01:37:57;39.00;;;3.77;;
11092;SDS011;5600;50.864;6.102;2023-12-20T01:40:58;46.57;;;4.33;;
11092;SDS011;5600;50.864;6.102;2023-12-20T01:43:59;47.57;;;4.60;;
11092;SDS011;5600;50.864;6.102;2023-12-20T01:47:00;53.83;;;4.53;;
11092;SDS011;5600;50.864;6.102;2023-12-20T01:50:01;38.00;;;4.07;;
11092;SDS011;5600;50.864;6.102;2023-12-20T01:53:04;47.53;;;5.10;;
11092;SDS011;5600;50.864;6.102;2023-12-20T01:56:07;40.07;;;4.60;;
11092;SDS011;5600;50.864;6.102;2023-12-20T01:59:09;44.80;;;5.00;;
11092;SDS011;5600;50.864;6.102;2023-12-20T02:02:10;63.43;;;5.90;;
11092;SDS011;5600;50.864;6.102;2023-12-20T02:05:12;44.43;;;5.17;;
11092;SDS011;5600;50.864;6.102;2023-12-20T02:08:13;49.67;;;5.43;;
11092;SDS011;5600;50.864;6.102;2023-12-20T02:11:14;48.70;;;5.43;;
11092;SDS011;5600;50.864;6.102;2023-12-20T02:14:15;35.60;;;4.63;;
11092;SDS011;5600;50.864;6.102;2023-12-20T02:17:16;43.50;;;5.13;;
11092;SDS011;5600;50.864;6.102;2023-12-20T02:20:17;40.13;;;4.67;;
11092;SDS011;5600;50.864;6.102;2023-12-20T02:23:18;44.80;;;4.73;;
11092;SDS011;5600;50.864;6.102;2023-12-20T02:26:19;44.37;;;4.40;;
11092;SDS011;5600;50.864;6.102;2023-12-20T02:29:20;30.37;;;4.00;;
11092;SDS011;5600;50.864;6.102;2023-12-20T02:32:21;51.97;;;4.40;;
11092;SDS011;5600;50.864;6.102;2023-12-20T02:35:26;39.90;;;3.93;;
11092;SDS011;5600;50.864;6.102;2023-12-20T02:38:27;40.10;;;3.83;;
11092;SDS011;5600;50.864;6.102;2023-12-20T02:41:27;46.77;;;4.50;;
11092;SDS011;5600;50.864;6.102;2023-12-20T02:44:28;39.77;;;4.60;;
11092;SDS011;5600;50.864;6.102;2023-12-20T02:47:29;39.50;;;4.37;;
11092;SDS011;5600;50.864;6.102;2023-12-20T02:50:30;30.80;;;3.93;;
11092;SDS011;5600;50.864;6.102;2023-12-20T02:53:31;39.63;;;4.30;;
11092;SDS011;5600;50.864;6.102;2023-12-20T02:56:32;39.93;;;4.63;;
11092;SDS011;5600;50.864;6.102;2023-12-20T02:59:33;45.40;;;4.83;;
11092;SDS011;5600;50.864;6.102;2023-12-20T03:02:34;46.73;;;5.03;;
11092;SDS011;5600;50.864;6.102;2023-12-20T03:05:35;30.03;;;4.27;;
11092;SDS011;5600;50.864;6.102;2023-12-20T03:08:35;44.20;;;5.70;;
11092;SDS011;5600;50.864;6.102;2023-12-20T03:11:37;48.23;;;5.57;;
11092;SDS011;5600;50.864;6.102;2023-12-20T03:14:38;39.90;;;5.03;;
11092;SDS011;5600;50.864;6.102;2023-12-20T03:17:39;46.67;;;5.90;;
11092;SDS011;5600;50.864;6.102;2023-12-20T03:20:40;43.73;;;5.50;;
11092;SDS011;5600;50.864;6.102;2023-12-20T03:23:41;43.13;;;5.73;;
11092;SDS011;5600;50.864;6.102;2023-12-20T03:26:43;47.37;;;6.70;;
11092;SDS011;5600;50.864;6.102;2023-12-20T03:29:44;56.30;;;6.63;;
11092;SDS011;5600;50.864;6.102;2023-12-20T03:32:44;43.27;;;6.03;;
11092;SDS011;5600;50.864;6.102;2023-12-20T03:35:45;48.70;;;5.83;;
11092;SDS011;5600;50.864;6.102;2023-12-20T03:38:46;45.23;;;5.93;;
11092;SDS011;5600;50.864;6.102;2023-12-20T03:41:47;52.17;;;6.47;;
11092;SDS011;5600;50.864;6.102;2023-12-20T03:44:49;43.17;;;5.27;;
11092;SDS011;5600;50.864;6.102;2023-12-20T03:47:50;42.87;;;5.37;;
11092;SDS011;5600;50.864;6.102;2023-12-20T03:50:55;46.63;;;5.63;;
11092;SDS011;5600;50.864;6.102;2023-12-20T03:53:56;42.67;;;5.23;;
11092;SDS011;5600;50.864;6.102;2023-12-20T03:56:57;43.33;;;5.57;;
11092;SDS011;5600;50.864;6.102;2023-12-20T03:59:58;87.23;;;7.10;;
11092;SDS011;5600;50.864;6.102;2023-12-20T04:02:59;46.93;;;5.23;;
11092;SDS011;5600;50.864;6.102;2023-12-20T04:06:00;47.03;;;4.83;;
11092;SDS011;5600;50.864;6.102;2023-12-20T04:09:00;46.57;;;5.43;;
11092;SDS011;5600;50.864;6.102;2023-12-20T04:12:02;49.13;;;5.30;;
11092;SDS011;5600;50.864;6.102;2023-12-20T04:15:03;39.80;;;5.00;;
11092;SDS011;5600;50.864;6.102;2023-12-20T04:18:09;57.37;;;5.37;;
11092;SDS011;5600;50.864;6.102;2023-12-20T04:21:10;40.03;;;5.23;;
11092;SDS011;5600;50.864;6.102;2023-12-20T04:24:11;60.03;;;5.83;;
11092;SDS011;5600;50.864;6.102;2023-12-20T04:27:11;49.50;;;5.90;;
11092;SDS011;5600;50.864;6.102;2023-12-20T04:30:12;46.87;;;5.90;;
11092;SDS011;5600;50.864;6.102;2023-12-20T04:33:13;28.40;;;4.07;;
11092;SDS011;5600;50.864;6.102;2023-12-20T04:36:14;23.17;;;3.87;;
11092;SDS011;5600;50.864;6.102;2023-12-20T04:39:15;38.57;;;5.03;;
11092;SDS011;5600;50.864;6.102;2023-12-20T04:42:16;44.23;;;4.60;;
11092;SDS011;5600;50.864;6.102;2023-12-20T04:45:17;54.33;;;5.57;;
11092;SDS011;5600;50.864;6.102;2023-12-20T04:48:19;36.87;;;4.27;;
11092;SDS011;5600;50.864;6.102;2023-12-20T04:51:20;51.00;;;4.73;;
11092;SDS011;5600;50.864;6.102;2023-12-20T04:54:21;35.57;;;4.40;;
11092;SDS011;5600;50.864;6.102;2023-12-20T04:57:22;56.47;;;5.60;;
11092;SDS011;5600;50.864;6.102;2023-12-20T05:00:23;47.53;;;4.70;;
11092;SDS011;5600;50.864;6.102;2023-12-20T05:03:24;59.80;;;5.77;;
11092;SDS011;5600;50.864;6.102;2023-12-20T05:06:25;44.93;;;5.30;;
11092;SDS011;5600;50.864;6.102;2023-12-20T05:09:26;54.17;;;5.40;;
11092;SDS011;5600;50.864;6.102;2023-12-20T05:12:27;44.73;;;4.63;;
11092;SDS011;5600;50.864;6.102;2023-12-20T05:15:28;52.00;;;5.07;;
11092;SDS011;5600;50.864;6.102;2023-12-20T05:18:29;49.20;;;5.63;;
11092;SDS011;5600;50.864;6.102;2023-12-20T05:21:30;42.90;;;4.77;;
11092;SDS011;5600;50.864;6.102;2023-12-20T05:24:31;59.70;;;5.83;;
11092;SDS011;5600;50.864;6.102;2023-12-20T05:27:32;49.97;;;5.30;;
11092;SDS011;5600;50.864;6.102;2023-12-20T05:30:33;70.33;;;6.57;;
11092;SDS011;5600;50.864;6.102;2023-12-20T05:33:34;70.47;;;6.07;;
11092;SDS011;5600;50.864;6.102;2023-12-20T05:36:35;63.60;;;5.83;;
11092;SDS011;5600;50.864;6.102;2023-12-20T05:39:36;65.27;;;5.77;;
11092;SDS011;5600;50.864;6.102;2023-12-20T05:42:37;60.10;;;5.83;;
11092;SDS011;5600;50.864;6.102;2023-12-20T05:45:38;56.73;;;5.73;;
11092;SDS011;5600;50.864;6.102;2023-12-20T05:48:39;62.13;;;6.10;;
11092;SDS011;5600;50.864;6.102;2023-12-20T05:51:40;68.00;;;6.10;;
11092;SDS011;5600;50.864;6.102;2023-12-20T05:54:41;64.53;;;6.40;;
11092;SDS011;5600;50.864;6.102;2023-12-20T05:57:42;42.67;;;5.20;;
11092;SDS011;5600;50.864;6.102;2023-12-20T06:00:43;66.97;;;6.90;;
11092;SDS011;5600;50.864;6.102;2023-12-20T06:03:44;53.43;;;5.80;;
11092;SDS011;5600;50.864;6.102;2023-12-20T06:06:48;77.73;;;6.87;;
11092;SDS011;5600;50.864;6.102;2023-12-20T06:09:49;87.37;;;8.03;;
11092;SDS011;5600;50.864;6.102;2023-12-20T06:12:51;56.40;;;5.43;;
11092;SDS011;5600;50.864;6.102;2023-12-20T06:15:53;56.60;;;6.17;;
11092;SDS011;5600;50.864;6.102;2023-12-20T06:18:55;73.93;;;6.63;;
11092;SDS011;5600;50.864;6.102;2023-12-20T06:21:56;61.37;;;6.57;;
11092;SDS011;5600;50.864;6.102;2023-12-20T06:24:57;78.57;;;6.83;;
11092;SDS011;5600;50.864;6.102;2023-12-20T06:27:58;101.97;;;8.00;;
11092;SDS011;5600;50.864;6.102;2023-12-20T06:30:59;62.27;;;6.83;;
11092;SDS011;5600;50.864;6.102;2023-12-20T06:34:00;90.27;;;7.37;;
11092;SDS011;5600;50.864;6.102;2023-12-20T06:37:02;86.87;;;8.50;;
11092;SDS011;5600;50.864;6.102;2023-12-20T06:40:03;102.70;;;8.07;;
11092;SDS011;5600;50.864;6.102;2023-12-20T06:43:04;88.63;;;7.57;;
11092;SDS011;5600;50.864;6.102;2023-12-20T06:46:06;68.87;;;6.43;;
11092;SDS011;5600;50.864;6.102;2023-12-20T06:49:08;136.30;;;10.00;;
11092;SDS011;5600;50.864;6.102;2023-12-20T06:52:10;112.30;;;8.80;;
11092;SDS011;5600;50.864;6.102;2023-12-20T06:55:11;59.90;;;6.60;;
11092;SDS011;5600;50.864;6.102;2023-12-20T06:58:12;76.27;;;7.43;;
11092;SDS011;5600;50.864;6.102;2023-12-20T07:01:13;76.90;;;7.10;;
11092;SDS011;5600;50.864;6.102;2023-12-20T07:04:15;85.30;;;7.50;;
11092;SDS011;5600;50.864;6.102;2023-12-20T07:07:16;41.00;;;5.70;;
11092;SDS011;5600;50.864;6.102;2023-12-20T07:10:18;42.00;;;5.50;;
11092;SDS011;5600;50.864;6.102;2023-12-20T07:13:19;37.77;;;5.23;;
11092;SDS011;5600;50.864;6.102;2023-12-20T07:16:20;58.73;;;6.53;;
11092;SDS011;5600;50.864;6.102;2023-12-20T07:19:21;55.40;;;6.60;;
11092;SDS011;5600;50.864;6.102;2023-12-20T07:22:22;68.53;;;7.13;;
11092;SDS011;5600;50.864;6.102;2023-12-20T07:25:23;54.63;;;6.47;;
11092;SDS011;5600;50.864;6.102;2023-12-20T07:28:24;51.63;;;6.07;;
11092;SDS011;5600;50.864;6.102;2023-12-20T07:31:25;64.03;;;6.93;;
11092;SDS011;5600;50.864;6.102;2023-12-20T07:34:26;72.60;;;7.03;;
11092;SDS011;5600;50.864;6.102;2023-12-20T07:37:26;55.23;;;6.20;;
11092;SDS011;5600;50.864;6.102;2023-12-20T07:40:27;43.10;;;5.93;;
11092;SDS011;5600;50.864;6.102;2023-12-20T07:43:28;95.00;;;8.00;;
11092;SDS011;5600;50.864;6.102;2023-12-20T07:46:29;73.07;;;7.47;;
11092;SDS011;5600;50.864;6.102;2023-12-20T07:49:30;67.00;;;6.83;;
11092;SDS011;5600;50.864;6.102;2023-12-20T07:52:31;88.83;;;8.03;;
11092;SDS011;5600;50.864;6.102;2023-12-20T07:55:33;103.37;;;8.60;;
11092;SDS011;5600;50.864;6.102;2023-12-20T07:58:34;56.77;;;6.90;;
11092;SDS011;5600;50.864;6.102;2023-12-20T08:01:35;42.50;;;5.90;;
11092;SDS011;5600;50.864;6.102;2023-12-20T08:04:37;68.63;;;6.73;;
11092;SDS011;5600;50.864;6.102;2023-12-20T08:07:37;47.90;;;6.53;;
11092;SDS011;5600;50.864;6.102;2023-12-20T08:10:38;68.73;;;6.43;;
11092;SDS011;5600;50.864;6.102;2023-12-20T08:13:39;50.57;;;6.40;;
11092;SDS011;5600;50.864;6.102;2023-12-20T08:16:40;48.73;;;5.97;;
11092;SDS011;5600;50.864;6.102;2023-12-20T08:19:41;117.73;;;9.10;;
11092;SDS011;5600;50.864;6.102;2023-12-20T08:22:42;46.17;;;5.87;;
11092;SDS011;5600;50.864;6.102;2023-12-20T08:25:44;82.57;;;7.47;;
11092;SDS011;5600;50.864;6.102;2023-12-20T08:28:46;67.83;;;7.03;;
11092;SDS011;5600;50.864;6.102;2023-12-20T08:31:51;66.67;;;7.07;;
11092;SDS011;5600;50.864;6.102;2023-12-20T08:34:52;72.33;;;7.47;;
11092;SDS011;5600;50.864;6.102;2023-12-20T08:37:54;66.67;;;6.80;;
11092;SDS011;5600;50.864;6.102;2023-12-20T08:40:56;60.10;;;6.83;;
11092;SDS011;5600;50.864;6.102;2023-12-20T08:43:57;60.10;;;6.53;;
11092;SDS011;5600;50.864;6.102;2023-12-20T08:46:58;51.37;;;6.10;;
11092;SDS011;5600;50.864;6.102;2023-12-20T08:49:59;82.63;;;7.77;;
11092;SDS011;5600;50.864;6.102;2023-12-20T08:53:01;70.33;;;7.20;;
11092;SDS011;5600;50.864;6.102;2023-12-20T08:56:03;51.60;;;6.13;;
11092;SDS011;5600;50.864;6.102;2023-12-20T08:59:04;50.07;;;5.93;;
11092;SDS011;5600;50.864;6.102;2023-12-20T09:02:04;52.43;;;5.40;;
11092;SDS011;5600;50.864;6.102;2023-12-20T09:05:06;55.20;;;6.47;;
11092;SDS011;5600;50.864;6.102;2023-12-20T09:08:07;68.40;;;6.87;;
11092;SDS011;5600;50.864;6.102;2023-12-20T09:11:10;48.00;;;5.97;;
11092;SDS011;5600;50.864;6.102;2023-12-20T09:14:11;51.93;;;5.73;;
11092;SDS011;5600;50.864;6.102;2023-12-20T09:17:12;41.30;;;4.77;;
11092;SDS011;5600;50.864;6.102;2023-12-20T09:20:14;49.57;;;6.43;;
11092;SDS011;5600;50.864;6.102;2023-12-20T09:23:14;54.90;;;5.73;;
11092;SDS011;5600;50.864;6.102;2023-12-20T09:26:15;51.77;;;5.93;;
11092;SDS011;5600;50.864;6.102;2023-12-20T09:29:16;45.53;;;5.13;;
11092;SDS011;5600;50.864;6.102;2023-12-20T09:32:18;66.23;;;5.97;;
11092;SDS011;5600;50.864;6.102;2023-12-20T09:35:20;57.93;;;5.63;;
11092;SDS011;5600;50.864;6.102;2023-12-20T09:38:21;37.43;;;4.47;;
11092;SDS011;5600;50.864;6.102;2023-12-20T09:41:22;36.83;;;4.50;;
11092;SDS011;5600;50.864;6.102;2023-12-20T09:44:25;74.03;;;6.43;;
11092;SDS011;5600;50.864;6.102;2023-12-20T09:47:27;65.47;;;5.83;;
11092;SDS011;5600;50.864;6.102;2023-12-20T09:50:28;66.67;;;5.97;;
11092;SDS011;5600;50.864;6.102;2023-12-20T09:53:32;57.50;;;5.10;;
11092;SDS011;5600;50.864;6.102;2023-12-20T09:56:38;60.60;;;5.73;;
11092;SDS011;5600;50.864;6.102;2023-12-20T09:59:39;53.63;;;5.90;;
11092;SDS011;5600;50.864;6.102;2023-12-20T10:02:42;70.87;;;7.03;;
11092;SDS011;5600;50.864;6.102;2023-12-20T10:05:50;85.40;;;7.00;;
11092;SDS011;5600;50.864;6.102;2023-12-20T10:08:55;64.07;;;5.67;;
11092;SDS011;5600;50.864;6.102;2023-12-20T10:11:57;67.90;;;5.90;;
11092;SDS011;5600;50.864;6.102;2023-12-20T10:14:58;43.47;;;4.23;;
11092;SDS011;5600;50.864;6.102;2023-12-20T10:18:00;87.57;;;6.47;;
11092;SDS011;5600;50.864;6.102;2023-12-20T10:21:01;60.20;;;4.97;;
11092;SDS011;5600;50.864;6.102;2023-12-20T10:24:03;75.50;;;6.10;;
11092;SDS011;5600;50.864;6.102;2023-12-20T10:27:05;62.13;;;5.23;;
11092;SDS011;5600;50.864;6.102;2023-12-20T10:30:07;30.37;;;3.80;;
11092;SDS011;5600;50.864;6.102;2023-12-20T10:33:08;67.80;;;5.60;;
11092;SDS011;5600;50.864;6.102;2023-12-20T10:36:09;52.30;;;4.93;;
11092;SDS011;5600;50.864;6.102;2023-12-20T10:39:13;56.43;;;5.00;;
11092;SDS011;5600;50.864;6.102;2023-12-20T10:42:15;60.87;;;5.37;;
11092;SDS011;5600;50.864;6.102;2023-12-20T10:45:16;56.10;;;5.27;;
11092;SDS011;5600;50.864;6.102;2023-12-20T10:48:18;53.53;;;5.13;;
11092;SDS011;5600;50.864;6.102;2023-12-20T10:51:19;68.43;;;6.37;;
11092;SDS011;5600;50.864;6.102;2023-12-20T10:54:21;54.97;;;5.37;;
11092;SDS011;5600;50.864;6.102;2023-12-20T10:57:21;38.90;;;4.80;;
11092;SDS011;5600;50.864;6.102;2023-12-20T11:00:22;50.27;;;4.83;;
11092;SDS011;5600;50.864;6.102;2023-12-20T11:03:24;47.47;;;4.93;;
11092;SDS011;5600;50.864;6.102;2023-12-20T11:09:58;69.50;;;5.87;;
11092;SDS011;5600;50.864;6.102;2023-12-20T11:13:16;47.50;;;4.80;;
11092;SDS011;5600;50.864;6.102;2023-12-20T11:16:22;66.10;;;5.83;;
11092;SDS011;5600;50.864;6.102;2023-12-20T11:19:23;69.77;;;5.53;;
11092;SDS011;5600;50.864;6.102;2023-12-20T11:22:25;75.40;;;6.40;;
11092;SDS011;5600;50.864;6.102;2023-12-20T11:25:26;85.73;;;6.43;;
11092;SDS011;5600;50.864;6.102;2023-12-20T11:28:27;43.40;;;4.57;;
11092;SDS011;5600;50.864;6.102;2023-12-20T11:31:29;80.80;;;5.77;;
11092;SDS011;5600;50.864;6.102;2023-12-20T11:34:40;60.43;;;5.23;;
11092;SDS011;5600;50.864;6.102;2023-12-20T11:37:42;61.33;;;5.20;;
11092;SDS011;5600;50.864;6.102;2023-12-20T11:40:43;57.57;;;4.77;;
11092;SDS011;5600;50.864;6.102;2023-12-20T11:43:44;36.07;;;4.40;;
11092;SDS011;5600;50.864;6.102;2023-12-20T11:46:45;44.63;;;4.47;;
11092;SDS011;5600;50.864;6.102;2023-12-20T11:49:48;83.80;;;6.67;;
11092;SDS011;5600;50.864;6.102;2023-12-20T11:52:50;31.70;;;4.50;;
11092;SDS011;5600;50.864;6.102;2023-12-20T11:55:53;92.40;;;6.87;;
11092;SDS011;5600;50.864;6.102;2023-12-20T11:58:55;47.83;;;4.77;;
11092;SDS011;5600;50.864;6.102;2023-12-20T12:01:56;59.87;;;5.53;;
11092;SDS011;5600;50.864;6.102;2023-12-20T12:05:01;75.40;;;5.53;;
11092;SDS011;5600;50.864;6.102;2023-12-20T12:08:02;75.27;;;5.83;;
11092;SDS011;5600;50.864;6.102;2023-12-20T12:11:03;29.83;;;3.97;;
11092;SDS011;5600;50.864;6.102;2023-12-20T12:14:04;55.63;;;4.90;;
11092;SDS011;5600;50.864;6.102;2023-12-20T12:17:13;80.20;;;6.63;;
11092;SDS011;5600;50.864;6.102;2023-12-20T12:20:14;47.60;;;4.93;;
11092;SDS011;5600;50.864;6.102;2023-12-20T12:23:23;65.83;;;5.83;;
11092;SDS011;5600;50.864;6.102;2023-12-20T12:26:24;69.97;;;5.67;;
11092;SDS011;5600;50.864;6.102;2023-12-20T12:29:27;60.87;;;5.37;;
11092;SDS011;5600;50.864;6.102;2023-12-20T12:32:28;55.93;;;5.27;;
11092;SDS011;5600;50.864;6.102;2023-12-20T12:35:29;46.00;;;4.93;;
11092;SDS011;5600;50.864;6.102;2023-12-20T12:38:30;47.80;;;4.90;;
11092;SDS011;5600;50.864;6.102;2023-12-20T12:41:31;55.83;;;5.13;;
11092;SDS011;5600;50.864;6.102;2023-12-20T12:44:32;72.70;;;5.60;;
11092;SDS011;5600;50.864;6.102;2023-12-20T12:47:33;94.13;;;6.80;;
11092;SDS011;5600;50.864;6.102;2023-12-20T12:50:35;61.67;;;5.63;;
11092;SDS011;5600;50.864;6.102;2023-12-20T12:53:36;55.90;;;5.07;;
11092;SDS011;5600;50.864;6.102;2023-12-20T12:56:37;74.07;;;7.03;;
11092;SDS011;5600;50.864;6.102;2023-12-20T12:59:38;73.00;;;6.00;;
11092;SDS011;5600;50.864;6.102;2023-12-20T13:02:39;50.33;;;5.37;;
11092;SDS011;5600;50.864;6.102;2023-12-20T13:05:42;51.13;;;5.07;;
11092;SDS011;5600;50.864;6.102;2023-12-20T13:08:43;65.40;;;5.63;;
11092;SDS011;5600;50.864;6.102;2023-12-20T13:11:44;56.47;;;5.10;;
11092;SDS011;5600;50.864;6.102;2023-12-20T13:14:45;55.23;;;5.10;;
11092;SDS011;5600;50.864;6.102;2023-12-20T13:17:47;54.20;;;5.10;;
11092;SDS011;5600;50.864;6.102;2023-12-20T13:20:48;69.80;;;5.77;;
11092;SDS011;5600;50.864;6.102;2023-12-20T13:23:49;56.10;;;5.43;;
11092;SDS011;5600;50.864;6.102;2023-12-20T13:26:51;48.73;;;5.10;;
11092;SDS011;5600;50.864;6.102;2023-12-20T13:29:51;122.20;;;8.43;;
11092;SDS011;5600;50.864;6.102;2023-12-20T13:32:52;64.27;;;5.77;;
11092;SDS011;5600;50.864;6.102;2023-12-20T13:35:54;62.87;;;5.73;;
11092;SDS011;5600;50.864;6.102;2023-12-20T13:38:56;40.23;;;5.20;;
11092;SDS011;5600;50.864;6.102;2023-12-20T13:41:57;43.50;;;4.83;;
11092;SDS011;5600;50.864;6.102;2023-12-20T13:44:58;52.17;;;5.97;;
11092;SDS011;5600;50.864;6.102;2023-12-20T13:47:59;58.73;;;5.33;;
11092;SDS011;5600;50.864;6.102;2023-12-20T13:51:00;64.10;;;6.03;;
11092;SDS011;5600;50.864;6.102;2023-12-20T13:54:02;55.43;;;5.60;;
11092;SDS011;5600;50.864;6.102;2023-12-20T13:57:04;70.73;;;6.00;;
11092;SDS011;5600;50.864;6.102;2023-12-20T14:00:05;62.87;;;6.00;;
11092;SDS011;5600;50.864;6.102;2023-12-20T14:03:07;96.47;;;7.30;;
11092;SDS011;5600;50.864;6.102;2023-12-20T14:06:09;100.40;;;7.13;;
11092;SDS011;5600;50.864;6.102;2023-12-20T14:09:11;64.43;;;5.70;;
11092;SDS011;5600;50.864;6.102;2023-12-20T14:12:12;105.03;;;7.80;;
11092;SDS011;5600;50.864;6.102;2023-12-20T14:15:13;102.03;;;7.83;;
11092;SDS011;5600;50.864;6.102;2023-12-20T14:18:14;97.80;;;6.97;;
11092;SDS011;5600;50.864;6.102;2023-12-20T14:21:17;85.77;;;6.80;;
11092;SDS011;5600;50.864;6.102;2023-12-20T14:24:20;213.27;;;12.67;;
11092;SDS011;5600;50.864;6.102;2023-12-20T14:27:21;116.40;;;8.63;;
11092;SDS011;5600;50.864;6.102;2023-12-20T14:30:24;60.30;;;5.93;;
11092;SDS011;5600;50.864;6.102;2023-12-20T14:33:25;39.33;;;4.83;;
11092;SDS011;5600;50.864;6.102;2023-12-20T14:36:26;62.00;;;5.87;;
11092;SDS011;5600;50.864;6.102;2023-12-20T14:39:27;83.70;;;7.13;;
11092;SDS011;5600;50.864;6.102;2023-12-20T14:42:28;45.43;;;6.30;;
11092;SDS011;5600;50.864;6.102;2023-12-20T14:45:29;68.10;;;6.27;;
11092;SDS011;5600;50.864;6.102;2023-12-20T14:48:30;63.23;;;5.80;;
11092;SDS011;5600;50.864;6.102;2023-12-20T14:51:32;51.10;;;5.70;;
11092;SDS011;5600;50.864;6.102;2023-12-20T14:54:33;28.13;;;4.40;;
11092;SDS011;5600;50.864;6.102;2023-12-20T14:57:34;52.63;;;5.60;;
11092;SDS011;5600;50.864;6.102;2023-12-20T15:00:36;47.90;;;5.53;;
11092;SDS011;5600;50.864;6.102;2023-12-20T15:03:36;62.90;;;6.20;;
11092;SDS011;5600;50.864;6.102;2023-12-20T15:06:40;71.40;;;6.67;;
11092;SDS011;5600;50.864;6.102;2023-12-20T15:09:41;71.00;;;6.57;;
11092;SDS011;5600;50.864;6.102;2023-12-20T15:12:46;55.73;;;6.13;;
11092;SDS011;5600;50.864;6.102;2023-12-20T15:15:47;89.90;;;7.37;;
11092;SDS011;5600;50.864;6.102;2023-12-20T15:18:48;75.40;;;7.03;;
11092;SDS011;5600;50.864;6.102;2023-12-20T15:21:49;68.20;;;6.30;;
11092;SDS011;5600;50.864;6.102;2023-12-20T15:24:50;84.57;;;7.07;;
11092;SDS011;5600;50.864;6.102;2023-12-20T15:27:52;71.23;;;7.00;;
11092;SDS011;5600;50.864;6.102;2023-12-20T15:30:53;51.10;;;5.83;;
11092;SDS011;5600;50.864;6.102;2023-12-20T15:33:54;89.97;;;7.87;;
11092;SDS011;5600;50.864;6.102;2023-12-20T15:36:55;57.00;;;6.03;;
11092;SDS011;5600;50.864;6.102;2023-12-20T15:39:56;89.60;;;7.63;;
11092;SDS011;5600;50.864;6.102;2023-12-20T15:42:57;61.93;;;6.40;;
11092;SDS011;5600;50.864;6.102;2023-12-20T15:45:59;56.10;;;6.73;;
11092;SDS011;5600;50.864;6.102;2023-12-20T15:49:00;54.97;;;6.37;;
11092;SDS011;5600;50.864;6.102;2023-12-20T15:52:01;98.90;;;8.67;;
11092;SDS011;5600;50.864;6.102;2023-12-20T15:55:02;118.20;;;9.37;;
11092;SDS011;5600;50.864;6.102;2023-12-20T15:58:04;80.70;;;7.20;;
11092;SDS011;5600;50.864;6.102;2023-12-20T16:01:05;80.87;;;6.77;;
11092;SDS011;5600;50.864;6.102;2023-12-20T16:04:06;77.27;;;7.07;;
11092;SDS011;5600;50.864;6.102;2023-12-20T16:07:07;39.53;;;4.93;;
11092;SDS011;5600;50.864;6.102;2023-12-20T16:10:08;53.00;;;5.57;;
11092;SDS011;5600;50.864;6.102;2023-12-20T16:13:09;57.97;;;6.10;;
11092;SDS011;5600;50.864;6.102;2023-12-20T16:16:10;72.93;;;7.07;;
11092;SDS011;5600;50.864;6.102;2023-12-20T16:19:10;91.57;;;7.73;;
11092;SDS011;5600;50.864;6.102;2023-12-20T16:22:12;56.77;;;6.23;;
11092;SDS011;5600;50.864;6.102;2023-12-20T16:25:12;63.67;;;6.20;;
11092;SDS011;5600;50.864;6.102;2023-12-20T16:28:13;120.63;;;9.30;;
11092;SDS011;5600;50.864;6.102;2023-12-20T16:31:15;90.40;;;9.57;;
11092;SDS011;5600;50.864;6.102;2023-12-20T16:34:17;53.10;;;6.07;;
11092;SDS011;5600;50.864;6.102;2023-12-20T16:37:18;52.60;;;5.73;;
11092;SDS011;5600;50.864;6.102;2023-12-20T16:40:19;86.80;;;7.37;;
11092;SDS011;5600;50.864;6.102;2023-12-20T16:43:24;72.27;;;5.93;;
11092;SDS011;5600;50.864;6.102;2023-12-20T16:46:25;53.03;;;6.03;;
11092;SDS011;5600;50.864;6.102;2023-12-20T16:49:25;43.97;;;4.70;;
11092;SDS011;5600;50.864;6.102;2023-12-20T16:52:26;48.67;;;4.97;;
11092;SDS011;5600;50.864;6.102;2023-12-20T16:55:27;58.93;;;5.70;;
11092;SDS011;5600;50.864;6.102;2023-12-20T16:58:29;49.23;;;5.10;;
11092;SDS011;5600;50.864;6.102;2023-12-20T17:01:29;77.17;;;6.97;;
11092;SDS011;5600;50.864;6.102;2023-12-20T17:04:30;69.47;;;5.83;;
11092;SDS011;5600;50.864;6.102;2023-12-20T17:07:33;50.53;;;5.47;;
11092;SDS011;5600;50.864;6.102;2023-12-20T17:10:33;67.00;;;6.20;;
11092;SDS011;5600;50.864;6.102;2023-12-20T17:13:34;46.33;;;4.63;;
11092;SDS011;5600;50.864;6.102;2023-12-20T17:16:35;78.40;;;6.47;;
11092;SDS011;5600;50.864;6.102;2023-12-20T17:19:36;72.00;;;6.03;;
11092;SDS011;5600;50.864;6.102;2023-12-20T17:22:37;88.63;;;6.93;;
11092;SDS011;5600;50.864;6.102;2023-12-20T17:25:38;77.90;;;6.33;;
11092;SDS011;5600;50.864;6.102;2023-12-20T17:28:40;26.90;;;4.30;;
11092;SDS011;5600;50.864;6.102;2023-12-20T17:31:41;57.17;;;5.87;;
11092;SDS011;5600;50.864;6.102;2023-12-20T17:34:43;73.80;;;6.40;;
11092;SDS011;5600;50.864;6.102;2023-12-20T17:37:44;50.20;;;5.40;;
11092;SDS011;5600;50.864;6.102;2023-12-20T17:40:45;48.07;;;5.20;;
11092;SDS011;5600;50.864;6.102;2023-12-20T17:43:45;95.50;;;7.70;;
11092;SDS011;5600;50.864;6.102;2023-12-20T17:46:46;80.73;;;6.87;;
11092;SDS011;5600;50.864;6.102;2023-12-20T17:49:48;79.73;;;7.30;;
11092;SDS011;5600;50.864;6.102;2023-12-20T17:52:52;50.43;;;5.63;;
11092;SDS011;5600;50.864;6.102;2023-12-20T17:55:55;45.13;;;5.03;;
11092;SDS011;5600;50.864;6.102;2023-12-20T17:58:56;69.83;;;7.13;;
11092;SDS011;5600;50.864;6.102;2023-12-20T18:01:57;76.67;;;6.90;;
11092;SDS011;5600;50.864;6.102;2023-12-20T18:04:58;61.77;;;5.57;;
11092;SDS011;5600;50.864;6.102;2023-12-20T18:07:59;91.77;;;7.20;;
11092;SDS011;5600;50.864;6.102;2023-12-20T18:11:00;69.47;;;6.80;;
11092;SDS011;5600;50.864;6.102;2023-12-20T18:14:01;86.93;;;7.47;;